createdAt,value
2023-03-23T00:00:09.903Z,47.31
2023-03-23T00:00:30.968Z,47.29
2023-03-23T00:00:52.016Z,47.35
2023-03-23T00:01:13.170Z,47.40
2023-03-23T00:01:34.519Z,47.46
2023-03-23T00:01:55.583Z,47.47
2023-03-23T00:02:16.641Z,47.45
2023-03-23T00:02:37.707Z,47.37
2023-03-23T00:02:58.779Z,47.31
2023-03-23T00:03:19.841Z,47.35
2023-03-23T00:03:40.884Z,47.34
2023-03-23T00:04:01.950Z,47.42
2023-03-23T00:04:22.997Z,47.42
2023-03-23T00:04:44.124Z,47.39
2023-03-23T00:05:05.188Z,47.43
2023-03-23T00:05:26.455Z,47.44
2023-03-23T00:05:47.571Z,47.42
2023-03-23T00:06:08.641Z,47.42
2023-03-23T00:06:29.764Z,47.32
2023-03-23T00:06:50.779Z,47.33
2023-03-23T00:07:11.860Z,47.41
2023-03-23T00:07:32.927Z,47.47
2023-03-23T00:07:54.008Z,47.45
2023-03-23T00:08:15.422Z,47.47
2023-03-23T00:08:36.493Z,47.49
2023-03-23T00:08:58.326Z,47.52
2023-03-23T00:09:19.929Z,47.59
2023-03-23T00:09:41.050Z,47.66
2023-03-23T00:10:02.113Z,47.73
2023-03-23T00:10:23.180Z,47.70
2023-03-23T00:10:44.238Z,47.61
2023-03-23T00:11:05.783Z,47.58
2023-03-23T00:11:26.816Z,47.56
2023-03-23T00:11:47.899Z,47.60
2023-03-23T00:12:08.949Z,47.63
2023-03-23T00:12:30.590Z,47.72
2023-03-23T00:12:53.132Z,47.73
2023-03-23T00:13:14.224Z,47.78
2023-03-23T00:13:35.294Z,47.77
2023-03-23T00:13:56.333Z,47.78
2023-03-23T00:14:17.412Z,47.74
2023-03-23T00:14:38.562Z,47.69
2023-03-23T00:14:59.857Z,47.67
2023-03-23T00:15:21.154Z,47.65
2023-03-23T00:15:42.509Z,47.65
2023-03-23T00:16:04.463Z,47.66
2023-03-23T00:16:25.552Z,47.70
2023-03-23T00:16:46.697Z,47.66
2023-03-23T00:17:07.757Z,47.68
2023-03-23T00:17:28.802Z,47.69
2023-03-23T00:17:49.863Z,47.63
2023-03-23T00:18:10.930Z,47.63
2023-03-23T00:18:32.322Z,47.68
2023-03-23T00:18:53.376Z,47.74
2023-03-23T00:19:14.479Z,47.80
2023-03-23T00:19:35.793Z,47.79
2023-03-23T00:19:56.865Z,47.80
2023-03-23T00:20:17.952Z,47.82
2023-03-23T00:20:39.017Z,47.82
2023-03-23T00:21:00.111Z,47.85
2023-03-23T00:21:21.144Z,47.91
2023-03-23T00:21:42.215Z,47.84
2023-03-23T00:22:03.264Z,47.77
2023-03-23T00:22:24.333Z,47.73
2023-03-23T00:22:45.418Z,47.75
2023-03-23T00:23:06.473Z,47.75
2023-03-23T00:23:27.515Z,47.64
2023-03-23T00:23:48.616Z,47.65
2023-03-23T00:24:09.654Z,47.66
2023-03-23T00:24:30.732Z,47.64
2023-03-23T00:24:51.826Z,47.72
2023-03-23T00:25:12.917Z,47.76
2023-03-23T00:25:34.181Z,47.79
2023-03-23T00:25:55.271Z,47.82
2023-03-23T00:26:16.333Z,47.83
2023-03-23T00:26:48.180Z,47.90
2023-03-23T00:27:04.366Z,47.93
2023-03-23T00:27:25.453Z,47.92
2023-03-23T00:27:46.500Z,47.87
2023-03-23T00:28:07.576Z,47.78
2023-03-23T00:28:28.634Z,47.78
2023-03-23T00:28:49.781Z,47.76
2023-03-23T00:29:10.832Z,47.78
2023-03-23T00:29:31.939Z,47.77
2023-03-23T00:29:52.993Z,47.77
2023-03-23T00:30:14.094Z,47.76
2023-03-23T00:30:35.128Z,47.81
2023-03-23T00:30:56.254Z,47.84
2023-03-23T00:31:17.334Z,47.85
2023-03-23T00:31:38.547Z,47.77
2023-03-23T00:31:59.628Z,47.75
2023-03-23T00:32:20.662Z,47.77
2023-03-23T00:32:41.725Z,47.86
2023-03-23T00:33:02.782Z,47.85
2023-03-23T00:33:23.872Z,47.91
2023-03-23T00:33:44.913Z,47.94
2023-03-23T00:34:06.058Z,47.91
2023-03-23T00:34:27.209Z,47.86
2023-03-23T00:34:48.255Z,47.87
2023-03-23T00:35:09.330Z,47.81
2023-03-23T00:35:30.424Z,47.86
2023-03-23T00:35:51.487Z,47.80
2023-03-23T00:36:12.552Z,47.79
2023-03-23T00:36:33.620Z,47.79
2023-03-23T00:36:54.690Z,47.76
2023-03-23T00:37:15.744Z,47.78
2023-03-23T00:37:36.777Z,47.79
2023-03-23T00:37:58.471Z,47.77
2023-03-23T00:38:19.663Z,47.78
2023-03-23T00:38:40.888Z,47.88
2023-03-23T00:39:02.479Z,47.89
2023-03-23T00:39:23.743Z,47.92
2023-03-23T00:39:44.803Z,47.88
2023-03-23T00:40:05.899Z,47.89
2023-03-23T00:40:26.999Z,47.87
2023-03-23T00:40:48.015Z,47.86
2023-03-23T00:41:09.207Z,47.81
2023-03-23T00:41:30.440Z,47.83
2023-03-23T00:41:51.511Z,47.85
2023-03-23T00:42:12.572Z,47.84
2023-03-23T00:42:33.629Z,47.90
2023-03-23T00:42:54.687Z,47.93
2023-03-23T00:43:15.751Z,47.90
2023-03-23T00:43:36.792Z,47.86
2023-03-23T00:43:57.875Z,47.82
2023-03-23T00:44:22.005Z,47.73
2023-03-23T00:44:44.049Z,47.65
2023-03-23T00:45:05.163Z,47.68
2023-03-23T00:45:26.226Z,47.73
2023-03-23T00:45:47.286Z,47.81
2023-03-23T00:46:08.338Z,47.83
2023-03-23T00:46:29.431Z,47.76
2023-03-23T00:46:50.548Z,47.74
2023-03-23T00:47:11.599Z,47.74
2023-03-23T00:47:32.898Z,47.69
2023-03-23T00:47:54.039Z,47.66
2023-03-23T00:48:15.123Z,47.63
2023-03-23T00:48:36.237Z,47.63
2023-03-23T00:48:57.297Z,47.62
2023-03-23T00:49:18.356Z,47.61
2023-03-23T00:49:39.416Z,47.60
2023-03-23T00:50:00.620Z,47.59
2023-03-23T00:50:29.430Z,47.63
2023-03-23T00:50:48.642Z,47.72
2023-03-23T00:51:09.698Z,47.70
2023-03-23T00:51:30.757Z,47.70
2023-03-23T00:51:51.808Z,47.69
2023-03-23T00:52:12.893Z,47.67
2023-03-23T00:52:33.965Z,47.72
2023-03-23T00:52:55.010Z,47.75
2023-03-23T00:53:16.506Z,47.78
2023-03-23T00:53:37.681Z,47.82
2023-03-23T00:53:58.723Z,47.85
2023-03-23T00:54:19.802Z,47.86
2023-03-23T00:54:40.840Z,47.88
2023-03-23T00:55:02.084Z,47.84
2023-03-23T00:55:23.149Z,47.78
2023-03-23T00:55:44.202Z,47.67
2023-03-23T00:56:05.302Z,47.67
2023-03-23T00:56:26.651Z,47.60
2023-03-23T00:56:47.685Z,47.65
2023-03-23T00:57:08.764Z,47.78
2023-03-23T00:57:29.798Z,47.81
2023-03-23T00:57:51.103Z,47.75
2023-03-23T00:58:13.934Z,47.76
2023-03-23T00:58:35.069Z,47.76
2023-03-23T00:58:56.124Z,47.72
2023-03-23T00:59:17.179Z,47.68
2023-03-23T00:59:38.241Z,47.62
2023-03-23T00:59:59.314Z,47.65
2023-03-23T01:00:26.486Z,47.71
2023-03-23T01:00:47.537Z,47.69
2023-03-23T01:01:08.594Z,47.69
2023-03-23T01:01:29.776Z,47.73
2023-03-23T01:01:50.870Z,47.69
2023-03-23T01:02:12.176Z,47.68
2023-03-23T01:02:33.231Z,47.68
2023-03-23T01:02:54.290Z,47.67
2023-03-23T01:03:15.360Z,47.66
2023-03-23T01:03:36.466Z,47.54
2023-03-23T01:03:57.525Z,47.58
2023-03-23T01:04:18.587Z,47.51
2023-03-23T01:04:39.674Z,47.49
2023-03-23T01:05:01.094Z,47.53
2023-03-23T01:05:22.191Z,47.60
2023-03-23T01:05:43.258Z,47.65
2023-03-23T01:06:04.356Z,47.69
2023-03-23T01:06:31.316Z,47.71
2023-03-23T01:06:52.451Z,47.64
2023-03-23T01:07:13.486Z,47.60
2023-03-23T01:07:34.586Z,47.57
2023-03-23T01:07:55.654Z,47.57
2023-03-23T01:08:16.706Z,47.55
2023-03-23T01:08:37.766Z,47.54
2023-03-23T01:08:58.873Z,47.57
2023-03-23T01:09:19.951Z,47.57
2023-03-23T01:09:41.022Z,47.57
2023-03-23T01:10:02.056Z,47.54
2023-03-23T01:10:23.151Z,47.56
2023-03-23T01:10:44.230Z,47.54
2023-03-23T01:11:06.000Z,47.57
2023-03-23T01:11:27.231Z,47.53
2023-03-23T01:11:48.281Z,47.56
2023-03-23T01:12:09.342Z,47.58
2023-03-23T01:12:30.425Z,47.60
2023-03-23T01:12:51.651Z,47.61
2023-03-23T01:13:12.707Z,47.61
2023-03-23T01:13:33.776Z,47.54
2023-03-23T01:13:54.816Z,47.58
2023-03-23T01:14:15.893Z,47.54
2023-03-23T01:14:37.408Z,47.56
2023-03-23T01:14:58.496Z,47.59
2023-03-23T01:15:19.682Z,47.58
2023-03-23T01:15:41.064Z,47.58
2023-03-23T01:16:02.456Z,47.57
2023-03-23T01:16:24.139Z,47.56
2023-03-23T01:16:45.188Z,47.55
2023-03-23T01:17:06.264Z,47.60
2023-03-23T01:17:27.336Z,47.61
2023-03-23T01:17:48.399Z,47.57
2023-03-23T01:18:09.471Z,47.54
2023-03-23T01:18:34.132Z,47.57
2023-03-23T01:18:55.212Z,47.63
2023-03-23T01:19:16.275Z,47.63
2023-03-23T01:19:37.695Z,47.65
2023-03-23T01:19:58.822Z,47.65
2023-03-23T01:20:20.115Z,47.59
2023-03-23T01:20:41.372Z,47.57
2023-03-23T01:21:02.602Z,47.53
2023-03-23T01:21:23.929Z,47.50
2023-03-23T01:21:44.977Z,47.49
2023-03-23T01:22:06.047Z,47.58
2023-03-23T01:22:27.123Z,47.64
2023-03-23T01:22:48.168Z,47.68
2023-03-23T01:23:09.216Z,47.71
2023-03-23T01:23:30.270Z,47.68
2023-03-23T01:23:51.338Z,47.69
2023-03-23T01:24:12.439Z,47.69
2023-03-23T01:24:33.505Z,47.69
2023-03-23T01:24:54.577Z,47.66
2023-03-23T01:25:15.857Z,47.66
2023-03-23T01:25:36.913Z,47.62
2023-03-23T01:25:57.976Z,47.69
2023-03-23T01:26:19.049Z,47.68
2023-03-23T01:26:40.137Z,47.67
2023-03-23T01:27:01.386Z,47.67
2023-03-23T01:27:22.435Z,47.68
2023-03-23T01:27:43.491Z,47.69
2023-03-23T01:28:04.653Z,47.67
2023-03-23T01:28:25.687Z,47.68
2023-03-23T01:28:46.752Z,47.69
2023-03-23T01:29:08.013Z,47.70
2023-03-23T01:29:29.386Z,47.71
2023-03-23T01:29:50.443Z,47.73
2023-03-23T01:30:11.518Z,47.80
2023-03-23T01:30:32.567Z,47.87
2023-03-23T01:30:53.627Z,47.94
2023-03-23T01:31:14.806Z,47.92
2023-03-23T01:31:35.906Z,47.86
2023-03-23T01:31:56.968Z,47.87
2023-03-23T01:32:18.033Z,47.82
2023-03-23T01:32:39.095Z,47.84
2023-03-23T01:33:00.158Z,47.85
2023-03-23T01:33:21.222Z,47.90
2023-03-23T01:33:42.287Z,47.91
2023-03-23T01:34:03.344Z,47.90
2023-03-23T01:34:24.397Z,47.89
2023-03-23T01:34:45.473Z,47.86
2023-03-23T01:35:06.869Z,47.89
2023-03-23T01:35:27.954Z,47.91
2023-03-23T01:35:49.046Z,47.91
2023-03-23T01:36:10.198Z,47.98
2023-03-23T01:36:31.270Z,48.04
2023-03-23T01:36:52.413Z,48.02
2023-03-23T01:37:13.643Z,48.04
2023-03-23T01:37:34.701Z,47.95
2023-03-23T01:37:55.767Z,47.93
2023-03-23T01:38:16.893Z,47.91
2023-03-23T01:38:37.934Z,47.86
2023-03-23T01:38:59.024Z,47.85
2023-03-23T01:39:20.097Z,47.87
2023-03-23T01:39:41.145Z,47.91
2023-03-23T01:40:02.219Z,47.89
2023-03-23T01:40:23.261Z,47.91
2023-03-23T01:40:44.456Z,47.89
2023-03-23T01:41:05.565Z,47.92
2023-03-23T01:41:26.617Z,47.97
2023-03-23T01:41:47.659Z,47.92
2023-03-23T01:42:08.721Z,47.92
2023-03-23T01:42:29.900Z,47.89
2023-03-23T01:42:50.953Z,47.85
2023-03-23T01:43:12.032Z,47.87
2023-03-23T01:43:33.104Z,47.87
2023-03-23T01:43:54.206Z,47.93
2023-03-23T01:44:15.242Z,47.94
2023-03-23T01:44:36.307Z,48.00
2023-03-23T01:44:57.347Z,47.99
2023-03-23T01:45:18.405Z,47.99
2023-03-23T01:45:39.621Z,47.98
2023-03-23T01:46:00.675Z,47.98
2023-03-23T01:46:21.850Z,48.01
2023-03-23T01:46:42.959Z,48.05
2023-03-23T01:47:04.019Z,48.00
2023-03-23T01:47:25.123Z,48.04
2023-03-23T01:47:46.366Z,48.03
2023-03-23T01:48:07.503Z,48.03
2023-03-23T01:48:28.559Z,48.02
2023-03-23T01:48:49.640Z,48.00
2023-03-23T01:49:10.859Z,48.01
2023-03-23T01:49:31.924Z,48.05
2023-03-23T01:49:52.979Z,48.02
2023-03-23T01:50:14.032Z,48.01
2023-03-23T01:50:35.101Z,48.00
2023-03-23T01:50:56.681Z,48.05
2023-03-23T01:51:17.734Z,48.07
2023-03-23T01:51:42.082Z,48.12
2023-03-23T01:52:03.238Z,48.13
2023-03-23T01:52:24.382Z,48.15
2023-03-23T01:52:45.444Z,48.20
2023-03-23T01:53:06.649Z,48.13
2023-03-23T01:53:27.727Z,48.13
2023-03-23T01:53:48.770Z,48.15
2023-03-23T01:54:10.152Z,48.21
2023-03-23T01:54:31.232Z,48.11
2023-03-23T01:54:52.259Z,48.13
2023-03-23T01:55:13.339Z,48.14
2023-03-23T01:55:34.672Z,48.17
2023-03-23T01:55:55.732Z,48.17
2023-03-23T01:56:16.783Z,48.15
2023-03-23T01:56:37.932Z,48.16
2023-03-23T01:56:58.982Z,48.11
2023-03-23T01:57:20.236Z,48.13
2023-03-23T01:57:45.689Z,48.02
2023-03-23T01:58:27.786Z,48.05
2023-03-23T01:58:48.944Z,48.19
2023-03-23T01:59:10.101Z,48.12
2023-03-23T01:59:31.147Z,48.06
2023-03-23T01:59:52.200Z,48.03
2023-03-23T02:00:13.264Z,48.07
2023-03-23T02:00:34.321Z,48.06
2023-03-23T02:00:55.374Z,48.02
2023-03-23T02:01:16.432Z,47.98
2023-03-23T02:01:37.593Z,48.02
2023-03-23T02:01:58.643Z,48.09
2023-03-23T02:02:20.366Z,48.07
2023-03-23T02:02:41.441Z,48.06
2023-03-23T02:03:02.496Z,48.09
2023-03-23T02:03:23.559Z,48.06
2023-03-23T02:03:44.678Z,48.07
2023-03-23T02:04:05.715Z,48.10
2023-03-23T02:04:27.252Z,48.05
2023-03-23T02:04:48.311Z,48.03
2023-03-23T02:05:09.360Z,48.07
2023-03-23T02:05:30.418Z,48.08
2023-03-23T02:05:51.486Z,48.13
2023-03-23T02:06:12.541Z,48.22
2023-03-23T02:06:33.610Z,48.25
2023-03-23T02:06:54.658Z,48.27
2023-03-23T02:07:15.967Z,48.26
2023-03-23T02:07:36.997Z,48.32
2023-03-23T02:07:58.091Z,48.30
2023-03-23T02:08:19.166Z,48.28
2023-03-23T02:08:40.306Z,48.28
2023-03-23T02:09:10.374Z,48.24
2023-03-23T02:09:28.518Z,48.26
2023-03-23T02:09:49.574Z,48.21
2023-03-23T02:10:10.635Z,48.28
2023-03-23T02:10:31.709Z,48.32
2023-03-23T02:10:52.760Z,48.41
2023-03-23T02:11:22.148Z,48.45
2023-03-23T02:11:40.796Z,48.49
2023-03-23T02:12:01.896Z,48.47
2023-03-23T02:12:23.451Z,48.45
2023-03-23T02:12:44.507Z,48.37
2023-03-23T02:13:06.086Z,48.37
2023-03-23T02:13:27.138Z,48.36
2023-03-23T02:13:48.217Z,48.36
2023-03-23T02:14:09.298Z,48.36
2023-03-23T02:14:30.354Z,48.30
2023-03-23T02:14:51.396Z,48.29
2023-03-23T02:15:12.454Z,48.29
2023-03-23T02:15:33.785Z,48.36
2023-03-23T02:15:54.855Z,48.37
2023-03-23T02:16:15.921Z,48.39
2023-03-23T02:16:36.968Z,48.38
2023-03-23T02:16:58.018Z,48.38
2023-03-23T02:17:19.095Z,48.38
2023-03-23T02:17:40.163Z,48.37
2023-03-23T02:18:01.209Z,48.41
2023-03-23T02:18:22.448Z,48.37
2023-03-23T02:18:43.510Z,48.36
2023-03-23T02:19:04.578Z,48.33
2023-03-23T02:19:25.661Z,48.38
2023-03-23T02:19:46.711Z,48.36
2023-03-23T02:20:07.774Z,48.35
2023-03-23T02:20:28.847Z,48.35
2023-03-23T02:20:49.912Z,48.35
2023-03-23T02:21:10.968Z,48.34
2023-03-23T02:21:32.019Z,48.39
2023-03-23T02:21:53.071Z,48.31
2023-03-23T02:22:14.134Z,48.33
2023-03-23T02:22:35.200Z,48.41
2023-03-23T02:22:56.252Z,48.51
2023-03-23T02:23:17.318Z,48.47
2023-03-23T02:23:38.376Z,48.47
2023-03-23T02:23:59.446Z,48.43
2023-03-23T02:24:20.492Z,48.45
2023-03-23T02:24:41.927Z,48.49
2023-03-23T02:25:02.993Z,48.55
2023-03-23T02:25:24.033Z,48.60
2023-03-23T02:25:45.121Z,48.62
2023-03-23T02:26:06.151Z,48.57
2023-03-23T02:26:27.206Z,48.59
2023-03-23T02:26:48.534Z,48.52
2023-03-23T02:27:09.606Z,48.47
2023-03-23T02:27:30.658Z,48.52
2023-03-23T02:27:51.726Z,48.54
2023-03-23T02:28:12.774Z,48.57
2023-03-23T02:28:33.831Z,48.58
2023-03-23T02:28:54.887Z,48.59
2023-03-23T02:29:16.406Z,48.65
2023-03-23T02:29:37.525Z,48.68
2023-03-23T02:29:58.613Z,48.66
2023-03-23T02:30:19.678Z,48.65
2023-03-23T02:30:40.733Z,48.53
2023-03-23T02:31:02.398Z,48.60
2023-03-23T02:31:23.537Z,48.56
2023-03-23T02:31:44.592Z,48.51
2023-03-23T02:32:05.840Z,48.56
2023-03-23T02:32:26.897Z,48.57
2023-03-23T02:32:48.072Z,48.62
2023-03-23T02:33:09.103Z,48.61
2023-03-23T02:33:30.160Z,48.63
2023-03-23T02:33:51.270Z,48.65
2023-03-23T02:34:12.380Z,48.65
2023-03-23T02:34:33.499Z,48.57
2023-03-23T02:34:54.829Z,48.56
2023-03-23T02:35:15.915Z,48.57
2023-03-23T02:35:37.112Z,48.53
2023-03-23T02:35:58.181Z,48.54
2023-03-23T02:36:19.546Z,48.60
2023-03-23T02:36:41.135Z,48.65
2023-03-23T02:37:02.197Z,48.66
2023-03-23T02:37:23.254Z,48.64
2023-03-23T02:37:44.303Z,48.69
2023-03-23T02:38:05.503Z,48.74
2023-03-23T02:38:26.579Z,48.78
2023-03-23T02:38:47.622Z,48.78
2023-03-23T02:39:08.877Z,48.76
2023-03-23T02:39:30.164Z,48.78
2023-03-23T02:39:51.226Z,48.71
2023-03-23T02:40:12.276Z,48.68
2023-03-23T02:40:33.428Z,48.68
2023-03-23T02:40:54.479Z,48.71
2023-03-23T02:41:15.521Z,48.73
2023-03-23T02:41:36.608Z,48.74
2023-03-23T02:41:57.674Z,48.74
2023-03-23T02:42:18.722Z,48.76
2023-03-23T02:42:39.780Z,48.76
2023-03-23T02:43:00.811Z,48.85
2023-03-23T02:43:22.018Z,48.93
2023-03-23T02:43:48.985Z,48.96
2023-03-23T02:44:10.239Z,48.97
2023-03-23T02:44:31.667Z,49.06
2023-03-23T02:44:52.737Z,49.06
2023-03-23T02:45:13.881Z,49.03
2023-03-23T02:45:34.949Z,49.05
2023-03-23T02:45:56.006Z,49.04
2023-03-23T02:46:17.057Z,49.09
2023-03-23T02:46:38.130Z,49.16
2023-03-23T02:46:59.188Z,49.16
2023-03-23T02:47:20.269Z,49.10
2023-03-23T02:47:41.325Z,49.14
2023-03-23T02:48:02.377Z,49.17
2023-03-23T02:48:23.732Z,49.17
2023-03-23T02:48:44.810Z,49.15
2023-03-23T02:49:05.835Z,49.16
2023-03-23T02:49:26.933Z,49.09
2023-03-23T02:49:47.978Z,49.12
2023-03-23T02:50:09.058Z,49.10
2023-03-23T02:50:30.122Z,49.16
2023-03-23T02:50:51.402Z,49.13
2023-03-23T02:51:12.479Z,49.17
2023-03-23T02:51:33.693Z,49.17
2023-03-23T02:52:00.679Z,49.17
2023-03-23T02:52:21.716Z,49.24
2023-03-23T02:52:42.961Z,49.24
2023-03-23T02:53:04.018Z,49.31
2023-03-23T02:53:25.320Z,49.30
2023-03-23T02:53:46.389Z,49.40
2023-03-23T02:54:07.443Z,49.42
2023-03-23T02:54:28.502Z,49.51
2023-03-23T02:54:49.782Z,49.54
2023-03-23T02:55:11.031Z,49.63
2023-03-23T02:55:32.106Z,49.68
2023-03-23T02:55:53.167Z,49.71
2023-03-23T02:56:14.470Z,49.80
2023-03-23T02:56:35.523Z,49.84
2023-03-23T02:56:56.609Z,49.91
2023-03-23T02:57:17.669Z,50.03
2023-03-23T02:57:40.460Z,50.14
2023-03-23T02:58:01.716Z,50.18
2023-03-23T02:58:22.792Z,50.21
2023-03-23T02:58:43.843Z,50.22
2023-03-23T02:59:04.890Z,50.31
2023-03-23T02:59:26.121Z,50.38
2023-03-23T02:59:47.458Z,50.49
2023-03-23T03:00:08.509Z,50.57
2023-03-23T03:00:30.010Z,50.63
2023-03-23T03:00:51.172Z,50.68
2023-03-23T03:01:12.307Z,50.69
2023-03-23T03:01:33.409Z,50.73
2023-03-23T03:01:54.461Z,50.82
2023-03-23T03:02:15.566Z,51.00
2023-03-23T03:02:36.669Z,51.13
2023-03-23T03:02:57.818Z,51.28
2023-03-23T03:03:18.880Z,51.40
2023-03-23T03:03:40.101Z,51.58
2023-03-23T03:04:01.154Z,51.78
2023-03-23T03:04:22.250Z,51.92
2023-03-23T03:04:43.677Z,52.05
2023-03-23T03:05:08.095Z,52.02
2023-03-23T03:05:29.216Z,52.10
2023-03-23T03:05:50.269Z,52.33
2023-03-23T03:06:11.338Z,52.46
2023-03-23T03:06:32.430Z,52.64
2023-03-23T03:06:53.751Z,52.80
2023-03-23T03:07:14.945Z,52.94
2023-03-23T03:07:35.999Z,53.24
2023-03-23T03:07:57.069Z,53.46
2023-03-23T03:08:18.285Z,53.69
2023-03-23T03:08:39.793Z,53.87
2023-03-23T03:09:00.974Z,54.10
2023-03-23T03:09:22.317Z,54.41
2023-03-23T03:09:43.400Z,54.72
2023-03-23T03:10:04.474Z,54.92
2023-03-23T03:10:25.516Z,55.12
2023-03-23T03:10:46.583Z,55.30
2023-03-23T03:11:07.722Z,55.55
2023-03-23T03:11:28.972Z,55.81
2023-03-23T03:11:50.034Z,56.09
2023-03-23T03:12:11.105Z,56.34
2023-03-23T03:12:32.308Z,56.38
2023-03-23T03:12:53.410Z,56.35
2023-03-23T03:13:14.438Z,56.35
2023-03-23T03:13:35.596Z,56.40
2023-03-23T03:13:57.036Z,56.38
2023-03-23T03:14:18.141Z,56.39
2023-03-23T03:14:39.234Z,56.52
2023-03-23T03:15:00.291Z,56.68
2023-03-23T03:15:21.369Z,56.72
2023-03-23T03:15:42.627Z,56.68
2023-03-23T03:16:03.884Z,56.76
2023-03-23T03:16:24.915Z,56.85
2023-03-23T03:16:46.048Z,56.89
2023-03-23T03:17:07.355Z,57.01
2023-03-23T03:17:28.463Z,57.05
2023-03-23T03:17:49.549Z,57.04
2023-03-23T03:18:10.634Z,57.10
2023-03-23T03:18:31.721Z,57.26
2023-03-23T03:18:52.762Z,57.35
2023-03-23T03:19:13.830Z,57.44
2023-03-23T03:19:34.881Z,57.51
2023-03-23T03:19:56.006Z,57.46
2023-03-23T03:20:17.193Z,57.49
2023-03-23T03:20:38.266Z,57.54
2023-03-23T03:21:00.550Z,57.50
2023-03-23T03:21:22.113Z,57.49
2023-03-23T03:21:43.304Z,57.55
2023-03-23T03:22:04.739Z,57.75
2023-03-23T03:22:26.012Z,57.84
2023-03-23T03:22:47.174Z,57.79
2023-03-23T03:23:08.232Z,57.76
2023-03-23T03:23:29.312Z,57.65
2023-03-23T03:23:50.874Z,57.68
2023-03-23T03:24:11.941Z,57.68
2023-03-23T03:24:33.528Z,57.67
2023-03-23T03:24:54.960Z,57.77
2023-03-23T03:25:18.790Z,57.86
2023-03-23T03:25:40.401Z,57.96
2023-03-23T03:26:01.559Z,57.96
2023-03-23T03:26:22.594Z,57.99
2023-03-23T03:26:43.961Z,58.03
2023-03-23T03:27:04.996Z,58.12
2023-03-23T03:27:26.111Z,58.17
2023-03-23T03:27:47.175Z,58.27
2023-03-23T03:28:08.260Z,58.38
2023-03-23T03:28:29.356Z,58.35
2023-03-23T03:28:50.507Z,58.25
2023-03-23T03:29:11.537Z,58.31
2023-03-23T03:29:32.586Z,58.35
2023-03-23T03:29:53.643Z,58.36
2023-03-23T03:30:14.722Z,58.30
2023-03-23T03:30:35.766Z,58.36
2023-03-23T03:30:56.832Z,58.39
2023-03-23T03:31:18.032Z,58.46
2023-03-23T03:31:39.135Z,58.55
2023-03-23T03:32:00.202Z,58.64
2023-03-23T03:32:21.511Z,58.64
2023-03-23T03:32:42.553Z,58.57
2023-03-23T03:33:03.790Z,58.55
2023-03-23T03:33:24.912Z,58.54
2023-03-23T03:33:45.980Z,58.61
2023-03-23T03:34:07.018Z,58.61
2023-03-23T03:34:28.071Z,58.56
2023-03-23T03:34:49.124Z,58.65
2023-03-23T03:35:10.344Z,58.82
2023-03-23T03:35:31.422Z,58.93
2023-03-23T03:35:52.579Z,59.01
2023-03-23T03:36:13.652Z,59.04
2023-03-23T03:36:34.697Z,59.08
2023-03-23T03:36:55.947Z,59.13
2023-03-23T03:37:17.004Z,59.17
2023-03-23T03:37:38.083Z,59.26
2023-03-23T03:37:59.217Z,59.37
2023-03-23T03:38:20.289Z,59.45
2023-03-23T03:38:41.352Z,59.45
2023-03-23T03:39:02.494Z,59.51
2023-03-23T03:39:23.541Z,59.48
2023-03-23T03:39:44.612Z,59.50
2023-03-23T03:40:06.092Z,59.52
2023-03-23T03:40:27.186Z,59.64
2023-03-23T03:40:48.333Z,59.72
2023-03-23T03:41:09.409Z,59.85
2023-03-23T03:41:30.519Z,59.90
2023-03-23T03:41:51.597Z,59.95
2023-03-23T03:42:12.651Z,60.04
2023-03-23T03:42:34.258Z,60.11
2023-03-23T03:42:55.370Z,60.15
2023-03-23T03:43:16.620Z,60.22
2023-03-23T03:43:37.842Z,60.30
2023-03-23T03:43:58.894Z,60.32
2023-03-23T03:44:20.377Z,60.36
2023-03-23T03:44:41.431Z,60.40
2023-03-23T03:45:02.511Z,60.41
2023-03-23T03:45:23.553Z,60.46
2023-03-23T03:45:44.773Z,60.47
2023-03-23T03:46:05.829Z,60.47
2023-03-23T03:46:26.898Z,60.53
2023-03-23T03:46:47.958Z,60.59
2023-03-23T03:47:09.238Z,60.69
2023-03-23T03:47:30.330Z,60.74
2023-03-23T03:47:51.373Z,60.79
2023-03-23T03:48:12.600Z,60.83
2023-03-23T03:48:33.645Z,60.85
2023-03-23T03:48:54.722Z,60.72
2023-03-23T03:49:15.810Z,60.71
2023-03-23T03:49:36.876Z,60.72
2023-03-23T03:49:57.928Z,60.83
2023-03-23T03:50:19.331Z,60.85
2023-03-23T03:50:40.394Z,60.85
2023-03-23T03:51:01.449Z,60.82
2023-03-23T03:51:22.511Z,60.85
2023-03-23T03:51:43.797Z,60.85
2023-03-23T03:52:05.073Z,60.82
2023-03-23T03:52:26.136Z,60.82
2023-03-23T03:52:47.268Z,60.79
2023-03-23T03:53:08.344Z,60.80
2023-03-23T03:53:29.390Z,60.86
2023-03-23T03:53:50.562Z,60.88
2023-03-23T03:54:11.631Z,60.84
2023-03-23T03:54:32.768Z,60.85
2023-03-23T03:54:54.298Z,60.90
2023-03-23T03:55:15.357Z,60.98
2023-03-23T03:55:36.406Z,61.05
2023-03-23T03:55:57.943Z,61.08
2023-03-23T03:56:19.023Z,61.16
2023-03-23T03:56:40.243Z,61.17
2023-03-23T03:57:01.398Z,61.19
2023-03-23T03:57:22.836Z,61.31
2023-03-23T03:57:43.889Z,61.35
2023-03-23T03:58:04.945Z,61.40
2023-03-23T03:58:26.176Z,61.37
2023-03-23T03:58:47.238Z,61.42
2023-03-23T03:59:21.726Z,61.45
2023-03-23T03:59:41.197Z,61.43
2023-03-23T04:00:02.692Z,61.42
2023-03-23T04:00:23.971Z,61.43
2023-03-23T04:00:45.031Z,61.49
2023-03-23T04:01:06.363Z,61.59
2023-03-23T04:01:27.645Z,61.61
2023-03-23T04:01:48.687Z,61.64
2023-03-23T04:02:10.622Z,61.65
2023-03-23T04:02:31.765Z,61.58
2023-03-23T04:02:52.839Z,61.57
2023-03-23T04:03:14.498Z,61.58
2023-03-23T04:03:35.786Z,61.58
2023-03-23T04:03:56.840Z,61.42
2023-03-23T04:04:18.061Z,61.31
2023-03-23T04:04:39.131Z,61.35
2023-03-23T04:05:00.356Z,61.32
2023-03-23T04:05:21.542Z,61.42
2023-03-23T04:05:43.357Z,61.51
2023-03-23T04:06:04.606Z,61.55
2023-03-23T04:06:25.688Z,61.60
2023-03-23T04:06:46.723Z,61.63
2023-03-23T04:07:07.775Z,61.68
2023-03-23T04:07:28.878Z,61.67
2023-03-23T04:07:51.265Z,61.68
2023-03-23T04:08:12.340Z,61.66
2023-03-23T04:08:33.402Z,61.68
2023-03-23T04:08:54.450Z,61.57
2023-03-23T04:09:21.461Z,61.62
2023-03-23T04:09:42.617Z,61.60
2023-03-23T04:10:03.904Z,61.62
2023-03-23T04:10:32.885Z,61.65
2023-03-23T04:10:51.969Z,61.59
2023-03-23T04:11:13.079Z,61.56
2023-03-23T04:11:40.041Z,61.56
2023-03-23T04:12:01.560Z,61.50
2023-03-23T04:12:22.649Z,61.53
2023-03-23T04:12:43.706Z,61.59
2023-03-23T04:13:05.089Z,61.68
2023-03-23T04:13:26.141Z,61.82
2023-03-23T04:13:47.511Z,61.97
2023-03-23T04:14:08.698Z,62.04
2023-03-23T04:14:29.777Z,62.05
2023-03-23T04:14:50.841Z,62.14
2023-03-23T04:15:11.947Z,62.13
2023-03-23T04:15:33.319Z,62.12
2023-03-23T04:16:10.113Z,62.07
2023-03-23T04:16:21.341Z,62.12
2023-03-23T04:16:43.091Z,62.10
2023-03-23T04:17:10.047Z,62.11
2023-03-23T04:17:31.644Z,62.14
2023-03-23T04:17:52.732Z,62.25
2023-03-23T04:18:13.774Z,62.31
2023-03-23T04:18:34.859Z,62.35
2023-03-23T04:18:56.248Z,62.40
2023-03-23T04:19:17.308Z,62.37
2023-03-23T04:19:38.378Z,62.42
2023-03-23T04:19:59.543Z,62.50
2023-03-23T04:20:31.651Z,62.44
2023-03-23T04:20:47.595Z,62.41
2023-03-23T04:21:08.652Z,62.38
2023-03-23T04:21:29.717Z,62.42
2023-03-23T04:21:50.766Z,62.45
2023-03-23T04:22:11.831Z,62.45
2023-03-23T04:22:33.154Z,62.51
2023-03-23T04:22:54.363Z,62.54
2023-03-23T04:23:15.890Z,62.70
2023-03-23T04:23:37.888Z,62.87
2023-03-23T04:23:59.052Z,62.85
2023-03-23T04:24:23.484Z,62.77
2023-03-23T04:24:56.387Z,62.77
2023-03-23T04:25:14.072Z,62.69
2023-03-23T04:25:35.119Z,62.61
2023-03-23T04:25:56.288Z,62.62
2023-03-23T04:26:17.330Z,62.65
2023-03-23T04:26:38.523Z,62.64
2023-03-23T04:26:59.581Z,62.66
2023-03-23T04:27:23.924Z,62.71
2023-03-23T04:27:45.038Z,62.65
2023-03-23T04:28:06.091Z,62.58
2023-03-23T04:28:27.134Z,62.61
2023-03-23T04:28:48.195Z,62.65
2023-03-23T04:29:09.396Z,62.73
2023-03-23T04:29:30.448Z,62.81
2023-03-23T04:29:51.941Z,62.75
2023-03-23T04:30:13.218Z,62.75
2023-03-23T04:30:34.292Z,62.81
2023-03-23T04:30:55.390Z,62.88
2023-03-23T04:31:16.942Z,62.92
2023-03-23T04:31:38.194Z,62.88
2023-03-23T04:31:59.825Z,62.92
2023-03-23T04:32:21.203Z,62.93
2023-03-23T04:32:42.254Z,62.90
2023-03-23T04:33:03.559Z,62.93
2023-03-23T04:33:24.625Z,63.00
2023-03-23T04:33:59.529Z,63.09
2023-03-23T04:34:18.566Z,63.15
2023-03-23T04:34:39.948Z,63.14
2023-03-23T04:35:12.738Z,63.18